createdAt,value
2019-05-23T00:02:56.678Z,29.48
2019-05-23T00:05:53.175Z,31.30
2019-05-23T00:08:42.905Z,33.20
2019-05-23T00:11:48.803Z,33.18
2019-05-23T00:14:33.871Z,31.73
2019-05-23T00:17:05.375Z,31.50
2019-05-23T00:19:36.888Z,35.17
2019-05-23T00:22:09.225Z,33.95
2019-05-23T00:24:42.522Z,36.63
2019-05-23T00:27:14.589Z,35.23
2019-05-23T00:29:48.350Z,37.40
2019-05-23T00:32:26.487Z,36.95
2019-05-23T00:34:57.324Z,39.70
2019-05-23T00:37:27.621Z,36.28
2019-05-23T00:39:57.893Z,39.18
2019-05-23T00:42:28.660Z,37.65
2019-05-23T00:44:59.061Z,36.73
2019-05-23T00:47:30.090Z,30.23
2019-05-23T00:50:06.395Z,32.17
2019-05-23T00:52:37.393Z,32.23
2019-05-23T00:55:10.135Z,34.35
2019-05-23T00:58:18.786Z,32.03
2019-05-23T01:00:54.340Z,28.42
2019-05-23T01:03:29.623Z,32.40
2019-05-23T01:06:00.315Z,32.13
2019-05-23T01:08:51.803Z,29.10
2019-05-23T01:11:23.177Z,31.30
2019-05-23T01:13:54.549Z,33.23
2019-05-23T01:16:25.337Z,28.50
2019-05-23T01:18:56.402Z,32.17
2019-05-23T01:21:55.191Z,33.90
2019-05-23T01:24:32.000Z,28.55
2019-05-23T01:27:04.821Z,29.80
2019-05-23T01:29:50.166Z,26.68
2019-05-23T01:32:34.061Z,29.27
2019-05-23T01:35:07.357Z,31.02
2019-05-23T01:37:37.917Z,31.87
2019-05-23T01:40:10.314Z,35.98
2019-05-23T01:42:42.305Z,30.85
2019-05-23T01:45:15.254Z,33.80
2019-05-23T01:47:47.802Z,31.30
2019-05-23T01:50:22.617Z,30.80
2019-05-23T01:52:54.289Z,30.90
2019-05-23T01:55:24.998Z,31.70
2019-05-23T01:57:55.903Z,31.87
2019-05-23T02:00:31.341Z,32.90
2019-05-23T02:03:02.090Z,34.03
2019-05-23T02:05:34.070Z,35.95
2019-05-23T02:08:05.148Z,31.23
2019-05-23T02:10:36.951Z,30.23
2019-05-23T02:13:08.874Z,29.70
2019-05-23T02:15:40.124Z,34.18
2019-05-23T02:18:11.647Z,30.23
2019-05-23T02:20:42.568Z,30.17
2019-05-23T02:23:15.020Z,30.52
2019-05-23T02:25:46.218Z,27.25
2019-05-23T02:28:17.667Z,27.73
2019-05-23T02:30:48.393Z,30.90
2019-05-23T02:33:19.786Z,28.00
2019-05-23T02:35:50.313Z,25.15
2019-05-23T02:38:52.372Z,23.15
2019-05-23T02:41:58.579Z,23.83
2019-05-23T02:44:31.860Z,26.70
2019-05-23T02:47:21.764Z,21.50
2019-05-23T02:49:54.504Z,26.68
2019-05-23T02:52:50.846Z,18.67
2019-05-23T02:55:28.035Z,26.00
2019-05-23T02:58:05.403Z,27.10
2019-05-23T03:00:54.914Z,36.10
2019-05-23T03:03:27.698Z,43.17
2019-05-23T03:06:01.031Z,37.85
2019-05-23T03:08:32.341Z,37.75
2019-05-23T03:11:13.370Z,39.30
2019-05-23T03:13:44.706Z,28.67
2019-05-23T03:16:19.441Z,29.25
2019-05-23T03:18:56.034Z,23.87
2019-05-23T03:21:28.675Z,25.75
2019-05-23T03:24:01.718Z,23.77
2019-05-23T03:27:03.094Z,22.75
2019-05-23T03:29:35.705Z,21.37
2019-05-23T03:32:24.106Z,25.17
2019-05-23T03:35:05.483Z,20.00
2019-05-23T03:37:35.985Z,19.50
2019-05-23T03:40:10.469Z,18.82
2019-05-23T03:42:41.585Z,22.25
2019-05-23T03:45:17.170Z,16.67
2019-05-23T03:47:49.187Z,16.25
2019-05-23T03:50:21.807Z,15.35
2019-05-23T03:52:52.491Z,14.83
2019-05-23T03:55:25.077Z,18.27
2019-05-23T03:57:56.195Z,15.00
2019-05-23T04:00:30.056Z,17.67
2019-05-23T04:03:02.687Z,18.70
2019-05-23T04:05:34.720Z,19.37
2019-05-23T04:08:06.120Z,15.38
2019-05-23T04:10:37.490Z,23.90
2019-05-23T04:13:08.870Z,22.55
2019-05-23T04:15:39.618Z,18.05
2019-05-23T04:18:10.258Z,15.10
2019-05-23T04:20:41.685Z,19.17
2019-05-23T04:23:13.629Z,13.70
2019-05-23T04:25:43.674Z,19.12
2019-05-23T04:28:14.479Z,15.83
2019-05-23T04:30:44.448Z,14.80
2019-05-23T04:33:14.316Z,14.43
2019-05-23T04:35:44.113Z,17.37
2019-05-23T04:38:14.893Z,16.05
2019-05-23T04:40:44.713Z,17.87
2019-05-23T04:43:15.192Z,17.32
2019-05-23T04:45:47.143Z,18.80
2019-05-23T04:48:21.071Z,18.75
2019-05-23T04:50:52.749Z,22.67
2019-05-23T04:53:23.473Z,20.68
2019-05-23T04:55:54.057Z,20.68
2019-05-23T04:58:26.179Z,23.07
2019-05-23T05:00:57.918Z,20.00
2019-05-23T05:03:28.933Z,21.10
2019-05-23T05:06:00.783Z,24.90
2019-05-23T05:08:31.435Z,29.57
2019-05-23T05:11:02.137Z,26.23
2019-05-23T05:13:32.782Z,23.07
2019-05-23T05:16:03.448Z,19.87
2019-05-23T05:18:34.364Z,17.98
2019-05-23T05:21:05.046Z,15.40
2019-05-23T05:23:35.043Z,21.00
2019-05-23T05:26:07.869Z,18.92
2019-05-23T05:28:37.842Z,19.23
2019-05-23T05:31:07.688Z,22.87
2019-05-23T05:33:39.420Z,22.27
2019-05-23T05:36:09.312Z,23.67
2019-05-23T05:38:39.247Z,25.08
2019-05-23T05:41:09.585Z,25.23
2019-05-23T05:43:40.281Z,19.25
2019-05-23T05:46:10.606Z,20.23
2019-05-23T05:48:40.513Z,20.40
2019-05-23T05:51:10.381Z,20.92
2019-05-23T05:53:41.232Z,25.97
2019-05-23T05:56:11.245Z,17.10
2019-05-23T05:58:40.989Z,20.17
2019-05-23T06:01:11.997Z,20.65
2019-05-23T06:03:41.829Z,28.65
2019-05-23T06:06:19.795Z,25.32
2019-05-23T06:08:52.788Z,28.27
2019-05-23T06:11:23.582Z,28.85
2019-05-23T06:13:54.597Z,20.80
2019-05-23T06:16:25.452Z,13.72
2019-05-23T06:18:56.208Z,17.52
2019-05-23T06:21:28.878Z,18.07
2019-05-23T06:23:59.625Z,30.95
2019-05-23T06:26:31.331Z,32.88
2019-05-23T06:29:02.011Z,31.02
2019-05-23T06:31:33.736Z,39.03
2019-05-23T06:34:04.987Z,38.33
2019-05-23T06:36:35.764Z,38.35
2019-05-23T06:39:07.820Z,36.93
2019-05-23T06:41:38.457Z,38.78
2019-05-23T06:44:10.030Z,38.73
2019-05-23T06:46:40.811Z,45.52
2019-05-23T06:49:10.724Z,46.55
2019-05-23T06:51:42.192Z,38.38
2019-05-23T06:54:13.325Z,37.48
2019-05-23T06:56:46.575Z,31.07
2019-05-23T06:59:17.411Z,31.05
2019-05-23T07:01:48.060Z,57.53
2019-05-23T07:04:19.434Z,74.53
2019-05-23T07:06:51.966Z,64.70
2019-05-23T07:09:22.617Z,47.60
2019-05-23T07:11:57.256Z,33.55
2019-05-23T07:14:30.294Z,32.88
2019-05-23T07:17:01.393Z,34.45
2019-05-23T07:19:31.350Z,31.57
2019-05-23T07:22:01.905Z,34.30
2019-05-23T07:24:32.556Z,30.05
2019-05-23T07:27:03.680Z,29.42
2019-05-23T07:29:35.742Z,36.35
2019-05-23T07:32:08.304Z,29.52
2019-05-23T07:34:38.973Z,24.98
2019-05-23T07:37:09.908Z,30.55
2019-05-23T07:39:40.793Z,33.98
2019-05-23T07:42:11.269Z,33.95
2019-05-23T07:44:48.450Z,38.40
2019-05-23T07:47:14.791Z,25.92
2019-05-23T07:49:45.459Z,22.70
2019-05-23T07:52:16.991Z,26.75
2019-05-23T07:54:52.585Z,30.70
2019-05-23T07:57:23.270Z,38.98
2019-05-23T07:59:54.101Z,36.93
2019-05-23T08:02:29.242Z,33.35
2019-05-23T08:04:59.279Z,32.30
2019-05-23T08:07:32.795Z,37.90
2019-05-23T08:10:03.150Z,30.43
2019-05-23T08:12:33.111Z,24.90
2019-05-23T08:15:03.067Z,27.70
2019-05-23T08:17:35.175Z,29.60
2019-05-23T08:20:05.177Z,24.35
2019-05-23T08:22:36.230Z,17.77
2019-05-23T08:25:08.450Z,20.55
2019-05-23T08:27:38.445Z,23.42
2019-05-23T08:30:11.961Z,18.23
2019-05-23T08:32:43.059Z,24.25
2019-05-23T08:35:17.834Z,23.12
2019-05-23T08:37:47.123Z,26.42
2019-05-23T08:40:19.116Z,21.65
2019-05-23T08:42:49.057Z,17.98
2019-05-23T08:45:19.541Z,17.17
2019-05-23T08:47:51.649Z,20.75
2019-05-23T08:50:22.462Z,19.35
2019-05-23T08:52:52.336Z,19.62
2019-05-23T08:55:22.660Z,22.02
2019-05-23T08:57:53.568Z,26.55
2019-05-23T09:00:26.986Z,25.08
2019-05-23T09:02:58.788Z,24.60
2019-05-23T09:05:30.488Z,27.93
2019-05-23T09:08:00.933Z,24.02
2019-05-23T09:10:31.068Z,20.60
2019-05-23T09:13:01.073Z,29.60
2019-05-23T09:15:31.409Z,28.38
2019-05-23T09:18:01.407Z,27.77
2019-05-23T09:20:32.015Z,24.25
2019-05-23T09:23:02.335Z,27.13
2019-05-23T09:25:32.253Z,26.15
2019-05-23T09:28:02.785Z,27.13
2019-05-23T09:30:34.371Z,32.85
2019-05-23T09:33:05.593Z,38.33
2019-05-23T09:35:36.107Z,27.95
2019-05-23T09:38:07.418Z,28.25
2019-05-23T09:40:38.521Z,31.60
2019-05-23T09:43:08.846Z,23.18
2019-05-23T09:45:38.718Z,20.50
2019-05-23T09:48:08.758Z,21.70
2019-05-23T09:50:39.811Z,22.13
2019-05-23T09:53:11.126Z,20.68
2019-05-23T09:55:41.981Z,20.60
2019-05-23T09:58:14.534Z,24.45
2019-05-23T10:00:45.105Z,20.50
2019-05-23T10:03:15.737Z,20.32
2019-05-23T10:05:45.581Z,21.52
2019-05-23T10:08:15.577Z,22.15
2019-05-23T10:10:45.497Z,25.70
2019-05-23T10:13:16.166Z,20.60
2019-05-23T10:15:57.810Z,18.05
2019-05-23T10:18:27.685Z,23.35
2019-05-23T10:20:57.512Z,26.70
2019-05-23T10:23:27.346Z,19.15
2019-05-23T10:25:57.119Z,21.68
2019-05-23T10:28:26.935Z,18.50
2019-05-23T10:30:58.032Z,16.25
2019-05-23T10:33:29.321Z,13.18
2019-05-23T10:36:01.368Z,13.40
2019-05-23T10:38:32.230Z,12.47
2019-05-23T10:41:03.060Z,13.48
2019-05-23T10:43:33.260Z,10.18
2019-05-23T10:46:03.329Z,11.60
2019-05-23T10:48:33.986Z,11.80
2019-05-23T10:51:06.294Z,11.20
2019-05-23T10:53:37.064Z,12.23
2019-05-23T10:56:07.129Z,11.22
2019-05-23T10:58:36.979Z,19.23
2019-05-23T11:01:06.884Z,17.82
2019-05-23T11:03:36.747Z,14.45
2019-05-23T11:06:16.202Z,13.03
2019-05-23T11:08:40.018Z,13.50
2019-05-23T11:11:14.707Z,10.20
2019-05-23T11:13:43.899Z,11.93
2019-05-23T11:16:14.787Z,12.95
2019-05-23T11:18:44.641Z,14.55
2019-05-23T11:21:14.663Z,13.62
2019-05-23T11:23:49.879Z,17.77
2019-05-23T11:26:21.014Z,15.80
2019-05-23T11:28:51.170Z,9.55
2019-05-23T11:31:22.267Z,9.53
2019-05-23T11:33:52.141Z,10.03
2019-05-23T11:36:34.883Z,8.48
2019-05-23T11:38:53.601Z,7.75
2019-05-23T11:41:24.565Z,11.83
2019-05-23T11:43:54.467Z,11.93
2019-05-23T11:46:28.598Z,7.60
2019-05-23T11:48:58.870Z,10.13
2019-05-23T11:51:29.267Z,11.83
2019-05-23T11:54:07.988Z,10.43
2019-05-23T11:56:31.863Z,12.65
2019-05-23T11:59:02.075Z,11.12
2019-05-23T12:01:50.916Z,8.00
2019-05-23T12:04:40.895Z,8.98
2019-05-23T12:07:24.254Z,7.87
2019-05-23T12:09:54.640Z,7.30
2019-05-23T12:12:24.589Z,10.95
2019-05-23T12:14:55.079Z,6.87
2019-05-23T12:17:27.501Z,9.10
2019-05-23T12:19:57.779Z,11.40
2019-05-23T12:22:28.807Z,6.05
2019-05-23T12:24:58.679Z,10.28
2019-05-23T12:27:28.553Z,8.48
2019-05-23T12:29:58.393Z,6.12
2019-05-23T12:32:40.332Z,6.58
2019-05-23T12:35:11.926Z,6.92
2019-05-23T12:37:43.230Z,11.15
2019-05-23T12:40:13.257Z,11.28
2019-05-23T12:42:43.192Z,8.00
2019-05-23T12:45:14.878Z,9.90
2019-05-23T12:48:10.095Z,6.87
2019-05-23T12:50:44.191Z,7.90
2019-05-23T12:53:15.426Z,7.40
2019-05-23T12:55:50.445Z,9.18
2019-05-23T12:58:27.362Z,5.83
2019-05-23T13:00:58.791Z,6.20
2019-05-23T13:03:31.478Z,9.30
2019-05-23T13:06:11.892Z,5.20
2019-05-23T13:08:42.129Z,7.90
2019-05-23T13:11:13.159Z,7.87
2019-05-23T13:13:43.558Z,10.48
2019-05-23T13:16:13.849Z,4.75
2019-05-23T13:18:46.056Z,4.12
2019-05-23T13:21:16.133Z,3.42
2019-05-23T13:23:46.717Z,9.05
2019-05-23T13:26:16.948Z,7.47
2019-05-23T13:28:47.338Z,6.05
2019-05-23T13:31:17.200Z,5.65
2019-05-23T13:33:47.535Z,9.85
2019-05-23T13:36:17.540Z,5.40
2019-05-23T13:38:47.907Z,5.42
2019-05-23T13:41:17.822Z,4.78
2019-05-23T13:43:47.697Z,4.97
2019-05-23T13:46:17.837Z,5.28
2019-05-23T13:48:49.300Z,6.00
2019-05-23T13:51:20.236Z,4.62
2019-05-23T13:53:51.146Z,2.87
2019-05-23T13:56:21.683Z,4.78
2019-05-23T13:58:52.663Z,8.25
2019-05-23T14:01:22.613Z,5.03
2019-05-23T14:03:52.910Z,3.05
2019-05-23T14:06:23.202Z,2.60
2019-05-23T14:08:53.023Z,4.22
2019-05-23T14:11:23.309Z,2.52
2019-05-23T14:14:01.308Z,4.42
2019-05-23T14:16:28.716Z,4.20
2019-05-23T14:18:58.633Z,4.87
2019-05-23T14:21:32.856Z,4.90
2019-05-23T14:24:03.451Z,4.28
2019-05-23T14:26:40.441Z,3.72
2019-05-23T14:29:10.437Z,3.22
2019-05-23T14:31:47.093Z,8.93
2019-05-23T14:34:18.836Z,8.25
2019-05-23T14:37:12.394Z,4.90
2019-05-23T14:39:45.404Z,5.35
2019-05-23T14:42:28.527Z,7.37
2019-05-23T14:44:58.883Z,9.85
2019-05-23T14:47:46.732Z,7.45
2019-05-23T14:50:38.200Z,5.65
2019-05-23T14:53:08.914Z,5.92
2019-05-23T14:55:39.259Z,5.95
2019-05-23T14:58:09.383Z,7.22
2019-05-23T15:00:39.345Z,6.75
2019-05-23T15:03:09.214Z,5.85
2019-05-23T15:05:40.668Z,9.25
2019-05-23T15:08:10.822Z,6.33
2019-05-23T15:10:41.035Z,7.30
2019-05-23T15:13:11.664Z,5.35
2019-05-23T15:15:43.512Z,8.38
2019-05-23T15:18:13.931Z,8.28
2019-05-23T15:20:44.785Z,7.20
2019-05-23T15:23:14.968Z,5.92
2019-05-23T15:25:44.845Z,8.68
2019-05-23T15:28:15.998Z,17.85
2019-05-23T15:30:45.933Z,19.02
2019-05-23T15:33:15.825Z,13.53
2019-05-23T15:35:45.805Z,9.28
2019-05-23T15:38:16.484Z,9.38
2019-05-23T15:40:46.358Z,7.78
2019-05-23T15:43:16.558Z,9.35
2019-05-23T15:45:46.529Z,8.33
2019-05-23T15:48:17.672Z,10.28
2019-05-23T15:50:51.449Z,8.60
2019-05-23T15:53:31.598Z,8.85
2019-05-23T15:56:27.887Z,8.70
2019-05-23T15:59:18.870Z,9.40
2019-05-23T16:02:02.182Z,8.30
2019-05-23T16:04:33.682Z,10.38
2019-05-23T16:07:05.187Z,16.67
2019-05-23T16:09:36.906Z,16.02
2019-05-23T16:12:09.669Z,15.28
2019-05-23T16:14:41.734Z,13.50
2019-05-23T16:17:12.784Z,14.63
2019-05-23T16:19:44.178Z,15.80
2019-05-23T16:22:15.213Z,23.87
2019-05-23T16:24:46.672Z,26.90
2019-05-23T16:27:17.695Z,25.48
2019-05-23T16:29:48.731Z,18.85
2019-05-23T16:32:19.665Z,20.25
2019-05-23T16:34:51.197Z,16.80
2019-05-23T16:37:22.439Z,17.82
2019-05-23T16:39:54.467Z,15.20
2019-05-23T16:42:27.589Z,11.93
2019-05-23T16:44:58.388Z,15.10
2019-05-23T16:47:30.275Z,16.95
2019-05-23T16:50:02.029Z,13.62
2019-05-23T16:52:33.128Z,14.87
2019-05-23T16:55:07.423Z,13.90
2019-05-23T16:57:52.025Z,30.23
2019-05-23T17:00:41.361Z,24.57
2019-05-23T17:03:27.665Z,17.82
2019-05-23T17:06:12.302Z,17.50
2019-05-23T17:09:05.370Z,16.90
2019-05-23T17:11:47.912Z,13.32
2019-05-23T17:14:38.016Z,15.65
2019-05-23T17:17:56.833Z,14.80
2019-05-23T17:20:19.719Z,17.55
2019-05-23T17:22:57.308Z,16.25
2019-05-23T17:25:44.112Z,14.28
2019-05-23T17:28:19.117Z,15.20
2019-05-23T17:30:59.271Z,24.75
2019-05-23T17:33:30.856Z,12.68
2019-05-23T17:36:06.075Z,13.20
2019-05-23T17:38:38.414Z,22.22
2019-05-23T17:41:10.974Z,16.57
2019-05-23T17:43:42.617Z,17.10
2019-05-23T17:46:16.161Z,15.95
2019-05-23T17:48:49.220Z,17.85
2019-05-23T17:51:20.933Z,21.17
2019-05-23T17:53:52.087Z,18.73
2019-05-23T17:56:22.822Z,14.50
2019-05-23T17:58:53.692Z,13.53
2019-05-23T18:01:25.372Z,15.50
2019-05-23T18:03:58.213Z,16.10
2019-05-23T18:06:29.985Z,15.18
2019-05-23T18:09:03.383Z,16.12
2019-05-23T18:11:35.418Z,17.10
2019-05-23T18:14:07.665Z,21.73
2019-05-23T18:16:38.471Z,13.90
2019-05-23T18:19:09.916Z,17.17
2019-05-23T18:21:40.699Z,17.85
2019-05-23T18:24:13.185Z,16.30
2019-05-23T18:26:44.162Z,14.13
2019-05-23T18:29:15.345Z,17.95
2019-05-23T18:31:48.370Z,16.12
2019-05-23T18:34:19.837Z,17.50
2019-05-23T18:36:52.340Z,14.38
2019-05-23T18:39:24.672Z,18.45
2019-05-23T18:41:56.106Z,16.75
2019-05-23T18:44:27.234Z,20.80
2019-05-23T18:47:00.385Z,19.80
2019-05-23T18:49:33.704Z,17.52
2019-05-23T18:52:04.770Z,17.02
2019-05-23T18:54:35.988Z,17.05
2019-05-23T18:57:06.647Z,19.00
2019-05-23T18:59:37.912Z,18.00
2019-05-23T19:02:09.131Z,18.35
2019-05-23T19:04:39.857Z,18.95
2019-05-23T19:07:11.853Z,19.85
2019-05-23T19:09:44.254Z,17.95
2019-05-23T19:12:16.043Z,21.37
2019-05-23T19:14:47.107Z,22.55
2019-05-23T19:17:19.254Z,18.87
2019-05-23T19:19:50.514Z,18.30
2019-05-23T19:22:22.481Z,17.37
2019-05-23T19:24:56.584Z,17.15
2019-05-23T19:27:27.977Z,22.50
2019-05-23T19:29:58.675Z,15.98
2019-05-23T19:32:31.189Z,18.12
2019-05-23T19:35:02.357Z,16.15
2019-05-23T19:37:34.892Z,20.00
2019-05-23T19:40:09.583Z,20.10
2019-05-23T19:42:41.268Z,17.57
2019-05-23T19:45:12.043Z,19.73
2019-05-23T19:47:43.470Z,15.78
2019-05-23T19:50:14.475Z,18.67
2019-05-23T19:52:46.038Z,17.23
2019-05-23T19:55:17.064Z,18.95
2019-05-23T19:57:48.167Z,14.83
2019-05-23T20:00:21.507Z,16.17
2019-05-23T20:02:55.407Z,15.58
2019-05-23T20:05:30.475Z,17.27
2019-05-23T20:08:02.137Z,19.00
2019-05-23T20:10:32.110Z,26.65
2019-05-23T20:13:03.100Z,22.95
2019-05-23T20:15:34.547Z,22.82
2019-05-23T20:18:06.621Z,18.17
2019-05-23T20:20:41.319Z,22.93
2019-05-23T20:23:16.335Z,20.12
2019-05-23T20:25:47.246Z,23.85
2019-05-23T20:28:18.269Z,22.25
2019-05-23T20:30:54.095Z,25.60
2019-05-23T20:33:25.297Z,26.00
2019-05-23T20:35:56.488Z,21.37
2019-05-23T20:38:28.340Z,20.97
2019-05-23T20:41:00.079Z,25.02
2019-05-23T20:43:31.286Z,26.90
2019-05-23T20:46:02.969Z,27.87
2019-05-23T20:48:35.149Z,26.45
2019-05-23T20:51:06.254Z,36.23
2019-05-23T20:53:36.247Z,34.63
2019-05-23T20:56:07.405Z,33.98
2019-05-23T20:58:40.329Z,38.33
2019-05-23T21:01:17.928Z,37.70
2019-05-23T21:03:49.281Z,37.50
2019-05-23T21:06:21.648Z,34.35
2019-05-23T21:09:17.832Z,36.40
2019-05-23T21:11:56.643Z,25.25
2019-05-23T21:14:57.929Z,31.20
2019-05-23T21:18:04.813Z,23.30
2019-05-23T21:21:11.242Z,22.32
2019-05-23T21:23:41.969Z,21.73
2019-05-23T21:26:12.634Z,20.50
2019-05-23T21:28:43.284Z,21.70
2019-05-23T21:31:20.657Z,21.10
2019-05-23T21:33:51.273Z,21.15
2019-05-23T21:36:23.448Z,22.77
2019-05-23T21:38:54.300Z,21.97
2019-05-23T21:41:26.020Z,24.72
2019-05-23T21:43:58.382Z,23.38
2019-05-23T21:46:29.212Z,25.45
2019-05-23T21:48:59.806Z,26.60
2019-05-23T21:51:30.378Z,28.35
2019-05-23T21:54:01.020Z,23.35
2019-05-23T21:56:31.805Z,21.82
2019-05-23T21:59:02.370Z,22.48
2019-05-23T22:01:52.218Z,18.07
2019-05-23T22:04:35.201Z,18.12
2019-05-23T22:07:07.078Z,23.60
2019-05-23T22:09:38.837Z,19.50
2019-05-23T22:12:13.353Z,18.70
2019-05-23T22:14:44.421Z,19.40
2019-05-23T22:17:16.291Z,21.17
2019-05-23T22:19:47.010Z,18.57
2019-05-23T22:22:18.092Z,18.62
2019-05-23T22:24:48.742Z,18.60
2019-05-23T22:27:20.000Z,19.50
2019-05-23T22:29:50.677Z,19.77
2019-05-23T22:32:23.649Z,19.05
2019-05-23T22:35:08.728Z,16.23
2019-05-23T22:37:39.435Z,16.75
2019-05-23T22:40:10.455Z,18.00
2019-05-23T22:42:41.493Z,17.80
2019-05-23T22:45:15.243Z,18.80
2019-05-23T22:47:45.855Z,20.12
2019-05-23T22:50:17.318Z,16.65
2019-05-23T22:52:48.060Z,19.07
2019-05-23T22:55:18.604Z,19.77
2019-05-23T22:57:49.264Z,18.70
2019-05-23T23:00:27.331Z,24.77
2019-05-23T23:02:58.087Z,19.95
2019-05-23T23:05:28.836Z,18.48
2019-05-23T23:07:59.557Z,20.62
2019-05-23T23:10:30.167Z,19.25
2019-05-23T23:13:00.882Z,22.22
2019-05-23T23:15:32.291Z,20.68
2019-05-23T23:18:02.849Z,19.25
2019-05-23T23:20:34.608Z,21.35
2019-05-23T23:23:05.495Z,18.90
2019-05-23T23:25:36.144Z,20.85
2019-05-23T23:28:06.721Z,19.25
2019-05-23T23:30:38.871Z,19.62
2019-05-23T23:33:09.421Z,23.92
2019-05-23T23:35:40.238Z,18.40
2019-05-23T23:38:10.985Z,20.27
2019-05-23T23:40:41.531Z,21.00
2019-05-23T23:43:12.464Z,21.05
2019-05-23T23:46:00.702Z,22.17
2019-05-23T23:48:49.148Z,23.50
2019-05-23T23:51:37.616Z,20.85
2019-05-23T23:54:26.112Z,21.70
2019-05-23T23:57:14.462Z,22.35
